createdAt,value
2019-06-10T00:01:08.604Z,3.13
2019-06-10T00:03:38.134Z,3.20
2019-06-10T00:06:07.794Z,2.97
2019-06-10T00:08:37.457Z,2.60
2019-06-10T00:11:07.854Z,2.80
2019-06-10T00:13:37.565Z,3.43
2019-06-10T00:16:08.028Z,2.70
2019-06-10T00:18:42.104Z,3.37
2019-06-10T00:21:11.209Z,3.23
2019-06-10T00:23:41.391Z,2.77
2019-06-10T00:26:12.463Z,3.73
2019-06-10T00:28:43.362Z,3.63
2019-06-10T00:31:13.403Z,3.67
2019-06-10T00:33:43.060Z,3.47
2019-06-10T00:36:13.533Z,3.00
2019-06-10T00:38:43.863Z,3.77
2019-06-10T00:41:14.339Z,3.00
2019-06-10T00:43:45.068Z,3.20
2019-06-10T00:46:14.772Z,3.53
2019-06-10T00:48:44.737Z,3.13
2019-06-10T00:51:14.403Z,3.33
2019-06-10T00:53:44.052Z,3.40
2019-06-10T00:56:14.509Z,3.67
2019-06-10T00:58:44.290Z,3.40
2019-06-10T01:01:14.667Z,2.93
2019-06-10T01:03:44.491Z,3.00
2019-06-10T01:06:15.174Z,3.67
2019-06-10T01:08:44.975Z,4.43
2019-06-10T01:11:21.293Z,3.47
2019-06-10T01:13:46.966Z,3.83
2019-06-10T01:16:16.953Z,3.43
2019-06-10T01:18:48.493Z,4.07
2019-06-10T01:21:18.347Z,3.03
2019-06-10T01:23:48.075Z,3.63
2019-06-10T01:26:18.334Z,4.27
2019-06-10T01:28:48.041Z,5.17
2019-06-10T01:31:23.334Z,4.73
2019-06-10T01:33:51.189Z,6.40
2019-06-10T01:36:21.083Z,5.90
2019-06-10T01:38:51.412Z,5.73
2019-06-10T01:41:21.628Z,6.57
2019-06-10T01:43:51.514Z,7.13
2019-06-10T01:46:21.374Z,6.83
2019-06-10T01:48:52.214Z,6.07
2019-06-10T01:51:22.449Z,6.00
2019-06-10T01:53:52.172Z,6.70
2019-06-10T01:56:22.141Z,6.53
2019-06-10T01:58:51.802Z,7.20
2019-06-10T02:01:46.307Z,6.97
2019-06-10T02:04:17.488Z,6.07
2019-06-10T02:06:47.338Z,6.90
2019-06-10T02:09:18.453Z,6.77
2019-06-10T02:11:48.654Z,6.90
2019-06-10T02:14:20.383Z,6.90
2019-06-10T02:16:50.662Z,7.00
2019-06-10T02:19:22.823Z,6.73
2019-06-10T02:21:52.225Z,7.57
2019-06-10T02:24:23.453Z,7.20
2019-06-10T02:26:53.234Z,7.00
2019-06-10T02:29:23.630Z,8.20
2019-06-10T02:31:53.454Z,7.63
2019-06-10T02:34:27.260Z,7.10
2019-06-10T02:36:55.466Z,7.10
2019-06-10T02:39:33.447Z,7.03
2019-06-10T02:42:04.415Z,7.40
2019-06-10T02:44:37.528Z,6.97
2019-06-10T02:47:04.723Z,6.83
2019-06-10T02:49:51.531Z,7.30
2019-06-10T02:52:19.943Z,8.40
2019-06-10T02:54:49.328Z,7.67
2019-06-10T02:57:24.635Z,7.03
2019-06-10T02:59:54.076Z,6.87
2019-06-10T03:02:23.736Z,7.47
2019-06-10T03:04:54.171Z,7.77
2019-06-10T03:07:28.355Z,8.00
2019-06-10T03:09:55.302Z,7.67
2019-06-10T03:12:25.910Z,7.67
2019-06-10T03:14:56.699Z,8.03
2019-06-10T03:17:28.154Z,7.47
2019-06-10T03:19:59.276Z,7.77
2019-06-10T03:22:28.945Z,8.10
2019-06-10T03:24:58.850Z,7.67
2019-06-10T03:27:28.536Z,7.37
2019-06-10T03:29:58.197Z,7.83
2019-06-10T03:32:33.290Z,8.40
2019-06-10T03:34:59.642Z,7.33
2019-06-10T03:37:29.653Z,7.50
2019-06-10T03:39:59.406Z,7.13
2019-06-10T03:42:29.078Z,7.40
2019-06-10T03:44:58.753Z,7.77
2019-06-10T03:47:28.846Z,7.40
2019-06-10T03:49:59.663Z,7.50
2019-06-10T03:52:29.352Z,6.83
2019-06-10T03:54:59.361Z,7.30
2019-06-10T03:57:29.030Z,7.67
2019-06-10T03:59:58.930Z,7.93
2019-06-10T04:02:28.637Z,7.60
2019-06-10T04:04:58.289Z,7.60
2019-06-10T04:07:30.984Z,7.47
2019-06-10T04:09:59.367Z,7.90
2019-06-10T04:12:29.394Z,8.47
2019-06-10T04:14:59.068Z,8.37
2019-06-10T04:17:28.893Z,7.60
2019-06-10T04:20:09.371Z,8.10
2019-06-10T04:22:29.904Z,8.40
2019-06-10T04:25:03.030Z,7.40
2019-06-10T04:27:32.911Z,7.77
2019-06-10T04:30:03.373Z,7.23
2019-06-10T04:32:33.255Z,8.10
2019-06-10T04:35:02.920Z,7.63
2019-06-10T04:37:32.661Z,7.50
2019-06-10T04:40:03.010Z,8.13
2019-06-10T04:42:33.084Z,6.77
2019-06-10T04:45:03.265Z,7.33
2019-06-10T04:47:33.402Z,7.50
2019-06-10T04:50:03.388Z,7.10
2019-06-10T04:52:33.164Z,7.57
2019-06-10T04:55:03.018Z,7.13
2019-06-10T04:57:33.000Z,8.80
2019-06-10T05:00:11.004Z,7.60
2019-06-10T05:02:35.471Z,7.73
2019-06-10T05:05:06.851Z,7.53
2019-06-10T05:07:37.263Z,7.50
2019-06-10T05:10:07.903Z,6.97
2019-06-10T05:12:37.567Z,7.23
2019-06-10T05:15:07.520Z,7.30
2019-06-10T05:17:37.247Z,7.50
2019-06-10T05:20:07.216Z,7.47
2019-06-10T05:22:37.083Z,7.43
2019-06-10T05:25:08.376Z,6.90
2019-06-10T05:27:38.040Z,6.83
2019-06-10T05:30:08.771Z,6.70
2019-06-10T05:32:38.819Z,6.83
2019-06-10T05:35:08.554Z,6.90
2019-06-10T05:37:38.206Z,6.70
2019-06-10T05:40:08.478Z,7.10
2019-06-10T05:42:38.148Z,7.17
2019-06-10T05:45:08.556Z,7.57
2019-06-10T05:47:38.489Z,7.37
2019-06-10T05:50:08.842Z,7.43
2019-06-10T05:52:38.818Z,7.00
2019-06-10T05:55:08.780Z,6.70
2019-06-10T05:57:38.462Z,7.07
2019-06-10T06:00:14.017Z,6.83
2019-06-10T06:02:43.110Z,6.33
2019-06-10T06:05:13.005Z,7.27
2019-06-10T06:07:42.993Z,6.90
2019-06-10T06:10:14.220Z,7.10
2019-06-10T06:12:43.958Z,6.80
2019-06-10T06:15:14.294Z,6.37
2019-06-10T06:17:44.616Z,6.97
2019-06-10T06:20:14.934Z,6.23
2019-06-10T06:22:44.601Z,6.90
2019-06-10T06:25:15.653Z,6.97
2019-06-10T06:27:45.440Z,7.70
2019-06-10T06:30:18.736Z,7.33
2019-06-10T06:32:47.439Z,7.00
2019-06-10T06:35:17.586Z,6.87
2019-06-10T06:37:48.327Z,6.93
2019-06-10T06:40:23.086Z,6.57
2019-06-10T06:42:52.859Z,6.27
2019-06-10T06:45:22.605Z,6.90
2019-06-10T06:47:52.847Z,7.33
2019-06-10T06:50:25.564Z,6.30
2019-06-10T06:53:20.032Z,6.90
2019-06-10T06:55:25.735Z,6.97
2019-06-10T06:57:55.461Z,6.60
2019-06-10T07:00:49.556Z,6.50
2019-06-10T07:03:05.570Z,6.40
2019-06-10T07:05:37.558Z,7.13
2019-06-10T07:08:12.930Z,6.77
2019-06-10T07:10:44.011Z,6.90
2019-06-10T07:13:17.363Z,6.80
2019-06-10T07:15:47.859Z,6.27
2019-06-10T07:18:17.706Z,6.33
2019-06-10T07:20:48.374Z,7.03
2019-06-10T07:23:22.680Z,5.47
2019-06-10T07:25:53.315Z,6.30
2019-06-10T07:28:27.909Z,6.67
2019-06-10T07:30:57.911Z,6.70
2019-06-10T07:33:29.972Z,6.87
2019-06-10T07:36:03.244Z,6.50
2019-06-10T07:38:37.494Z,6.20
2019-06-10T07:41:07.426Z,6.43
2019-06-10T07:43:42.438Z,5.97
2019-06-10T07:46:13.044Z,6.00
2019-06-10T07:48:47.829Z,6.40
2019-06-10T07:51:16.418Z,5.60
2019-06-10T07:53:46.851Z,5.97
2019-06-10T07:56:18.293Z,5.97
2019-06-10T07:58:52.558Z,6.37
2019-06-10T08:01:23.017Z,5.83
2019-06-10T08:03:53.461Z,6.03
2019-06-10T08:06:25.531Z,6.33
2019-06-10T08:08:57.441Z,5.90
2019-06-10T08:11:27.183Z,5.70
2019-06-10T08:13:58.360Z,6.47
2019-06-10T08:16:29.440Z,6.30
2019-06-10T08:19:22.072Z,6.17
2019-06-10T08:21:32.311Z,5.63
2019-06-10T08:24:03.486Z,5.97
2019-06-10T08:26:35.348Z,5.80
2019-06-10T08:29:05.567Z,5.43
2019-06-10T08:31:36.669Z,6.10
2019-06-10T08:34:06.978Z,5.87
2019-06-10T08:36:39.371Z,5.63
2019-06-10T08:39:15.156Z,5.73
2019-06-10T08:41:45.567Z,5.73
2019-06-10T08:44:12.994Z,5.67
2019-06-10T08:46:45.582Z,6.23
2019-06-10T08:49:15.108Z,5.73
2019-06-10T08:51:48.311Z,6.47
2019-06-10T08:54:16.487Z,6.10
2019-06-10T08:56:50.316Z,5.90
2019-06-10T08:59:17.622Z,5.43
2019-06-10T09:01:51.583Z,6.63
2019-06-10T09:04:18.689Z,6.20
2019-06-10T09:06:50.707Z,6.00
2019-06-10T09:09:22.480Z,5.97
2019-06-10T09:11:54.707Z,6.27
2019-06-10T09:14:23.684Z,6.83
2019-06-10T09:16:54.289Z,6.50
2019-06-10T09:19:24.269Z,6.23
2019-06-10T09:21:56.458Z,6.10
2019-06-10T09:24:25.398Z,6.23
2019-06-10T09:26:55.223Z,6.97
2019-06-10T09:29:25.618Z,6.23
2019-06-10T09:31:56.133Z,6.80
2019-06-10T09:34:25.924Z,6.73
2019-06-10T09:36:56.941Z,6.63
2019-06-10T09:39:27.177Z,6.67
2019-06-10T09:42:02.667Z,7.30
2019-06-10T09:44:28.542Z,6.73
2019-06-10T09:47:03.165Z,7.00
2019-06-10T09:49:33.064Z,7.27
2019-06-10T09:52:03.852Z,6.90
2019-06-10T09:54:33.854Z,7.33
2019-06-10T09:57:03.595Z,7.63
2019-06-10T09:59:33.557Z,7.77
2019-06-10T10:02:07.129Z,7.53
2019-06-10T10:04:37.527Z,7.07
2019-06-10T10:07:07.879Z,7.10
2019-06-10T10:09:38.013Z,6.50
2019-06-10T10:12:07.737Z,6.33
2019-06-10T10:14:37.433Z,6.37
2019-06-10T10:17:07.196Z,6.10
2019-06-10T10:19:37.164Z,6.97
2019-06-10T10:22:06.891Z,6.60
2019-06-10T10:24:36.991Z,6.23
2019-06-10T10:27:09.425Z,6.40
2019-06-10T10:29:38.275Z,6.33
2019-06-10T10:32:08.055Z,6.73
2019-06-10T10:34:37.770Z,6.60
2019-06-10T10:37:07.761Z,7.40
2019-06-10T10:39:37.789Z,6.47
2019-06-10T10:42:07.506Z,7.33
2019-06-10T10:44:37.200Z,6.33
2019-06-10T10:47:06.939Z,6.30
2019-06-10T10:49:36.622Z,6.50
2019-06-10T10:52:06.284Z,6.70
2019-06-10T10:54:36.859Z,7.00
2019-06-10T10:57:06.618Z,6.10
2019-06-10T10:59:36.311Z,6.50
2019-06-10T11:02:06.410Z,5.90
2019-06-10T11:04:38.094Z,6.50
2019-06-10T11:07:07.764Z,6.00
2019-06-10T11:09:37.423Z,5.87
2019-06-10T11:12:07.248Z,6.00
2019-06-10T11:14:37.660Z,5.43
2019-06-10T11:17:07.421Z,5.10
2019-06-10T11:19:37.336Z,5.17
2019-06-10T11:22:07.117Z,5.30
2019-06-10T11:24:41.061Z,5.33
2019-06-10T11:27:08.156Z,4.83
2019-06-10T11:29:37.852Z,5.00
2019-06-10T11:32:07.588Z,5.03
2019-06-10T11:34:37.313Z,4.10
2019-06-10T11:37:06.994Z,4.70
2019-06-10T11:39:38.755Z,4.90
2019-06-10T11:42:08.611Z,5.20
2019-06-10T11:44:38.628Z,4.90
2019-06-10T11:47:08.646Z,4.20
2019-06-10T11:49:38.306Z,4.37
2019-06-10T11:52:08.066Z,5.00
2019-06-10T11:54:51.677Z,4.80
2019-06-10T11:57:12.373Z,4.70
2019-06-10T11:59:43.419Z,5.23
2019-06-10T12:02:13.472Z,4.90
2019-06-10T12:04:43.258Z,4.80
2019-06-10T12:07:13.031Z,4.60
2019-06-10T12:09:42.705Z,4.63
2019-06-10T12:12:13.610Z,4.80
2019-06-10T12:14:43.323Z,4.53
2019-06-10T12:17:25.153Z,5.00
2019-06-10T12:19:44.395Z,5.00
2019-06-10T12:22:14.067Z,4.40
2019-06-10T12:24:43.753Z,4.80
2019-06-10T12:27:13.706Z,4.70
2019-06-10T12:29:43.352Z,5.03
2019-06-10T12:32:13.576Z,4.00
2019-06-10T12:34:46.192Z,5.00
2019-06-10T12:37:16.153Z,3.93
2019-06-10T12:39:45.860Z,4.23
2019-06-10T12:42:15.849Z,4.47
2019-06-10T12:44:45.574Z,4.73
2019-06-10T12:47:15.244Z,4.23
2019-06-10T12:49:44.917Z,4.23
2019-06-10T12:52:14.643Z,4.47
2019-06-10T12:54:44.328Z,4.30
2019-06-10T12:57:16.390Z,4.30
2019-06-10T12:59:45.406Z,4.70
2019-06-10T13:02:23.416Z,5.07
2019-06-10T13:04:47.667Z,5.00
2019-06-10T13:07:18.774Z,5.07
2019-06-10T13:09:48.582Z,4.77
2019-06-10T13:12:19.271Z,4.83
2019-06-10T13:14:48.931Z,5.23
2019-06-10T13:17:18.606Z,4.70
2019-06-10T13:19:48.265Z,4.90
2019-06-10T13:22:18.008Z,4.83
2019-06-10T13:24:47.991Z,4.87
2019-06-10T13:27:17.743Z,5.00
2019-06-10T13:29:47.482Z,4.23
2019-06-10T13:32:17.163Z,4.67
2019-06-10T13:34:46.853Z,4.87
2019-06-10T13:37:16.655Z,4.83
2019-06-10T13:39:46.642Z,5.10
2019-06-10T13:42:17.288Z,4.83
2019-06-10T13:44:47.932Z,4.53
2019-06-10T13:47:17.959Z,4.53
2019-06-10T13:49:49.078Z,4.87
2019-06-10T13:52:19.081Z,4.50
2019-06-10T13:54:48.748Z,4.83
2019-06-10T13:57:18.530Z,4.47
2019-06-10T13:59:48.508Z,4.57
2019-06-10T14:02:18.249Z,5.00
2019-06-10T14:04:47.936Z,5.20
2019-06-10T14:07:17.761Z,5.10
2019-06-10T14:09:47.539Z,4.93
2019-06-10T14:12:17.895Z,5.00
2019-06-10T14:14:48.537Z,5.20
2019-06-10T14:17:19.636Z,4.57
2019-06-10T14:19:50.201Z,5.73
2019-06-10T14:22:22.634Z,5.50
2019-06-10T14:24:53.029Z,5.47
2019-06-10T14:27:24.776Z,5.50
2019-06-10T14:29:54.715Z,5.50
2019-06-10T14:32:25.201Z,6.77
2019-06-10T14:34:55.181Z,6.00
2019-06-10T14:37:38.149Z,5.90
2019-06-10T14:39:56.346Z,6.23
2019-06-10T14:42:26.111Z,6.03
2019-06-10T14:44:55.883Z,5.63
2019-06-10T14:47:25.673Z,5.87
2019-06-10T14:49:56.111Z,6.00
2019-06-10T14:52:26.137Z,5.97
2019-06-10T14:54:57.579Z,5.67
2019-06-10T14:57:27.219Z,6.27
2019-06-10T14:59:56.922Z,6.50
2019-06-10T15:02:26.605Z,5.83
2019-06-10T15:04:56.557Z,5.57
2019-06-10T15:07:26.309Z,6.53
2019-06-10T15:09:55.970Z,5.80
2019-06-10T15:12:25.966Z,5.97
2019-06-10T15:14:55.686Z,6.40
2019-06-10T15:17:25.362Z,6.23
2019-06-10T15:19:55.086Z,6.13
2019-06-10T15:22:24.842Z,5.50
2019-06-10T15:24:54.609Z,5.90
2019-06-10T15:27:30.439Z,5.83
2019-06-10T15:29:55.983Z,5.57
2019-06-10T15:32:33.715Z,5.60
2019-06-10T15:34:57.154Z,5.70
2019-06-10T15:37:28.961Z,5.80
2019-06-10T15:39:58.623Z,5.70
2019-06-10T15:42:28.385Z,5.43
2019-06-10T15:44:59.295Z,6.40
2019-06-10T15:47:29.077Z,5.47
2019-06-10T15:49:59.063Z,5.40
2019-06-10T15:52:29.080Z,5.30
2019-06-10T15:54:58.828Z,5.20
2019-06-10T15:57:39.229Z,5.27
2019-06-10T16:00:02.782Z,5.37
2019-06-10T16:02:33.550Z,5.53
2019-06-10T16:05:05.290Z,5.73
2019-06-10T16:07:35.025Z,5.67
2019-06-10T16:10:05.664Z,5.93
2019-06-10T16:12:35.760Z,5.50
2019-06-10T16:15:06.065Z,5.83
2019-06-10T16:17:35.739Z,5.97
2019-06-10T16:20:06.331Z,5.80
2019-06-10T16:22:36.534Z,5.83
2019-06-10T16:25:06.567Z,5.83
2019-06-10T16:27:47.419Z,5.37
2019-06-10T16:30:08.069Z,5.47
2019-06-10T16:32:38.243Z,5.37
2019-06-10T16:35:08.529Z,5.30
2019-06-10T16:37:38.443Z,5.73
2019-06-10T16:40:08.868Z,5.40
2019-06-10T16:42:38.531Z,5.10
2019-06-10T16:45:09.049Z,5.27
2019-06-10T16:47:38.783Z,5.70
2019-06-10T16:50:08.825Z,5.93
2019-06-10T16:52:38.676Z,5.47
2019-06-10T16:55:08.793Z,5.23
2019-06-10T16:57:40.312Z,5.93
2019-06-10T17:00:14.440Z,5.73
2019-06-10T17:02:43.043Z,5.17
2019-06-10T17:05:13.565Z,5.60
2019-06-10T17:07:43.591Z,5.30
2019-06-10T17:10:15.708Z,5.23
2019-06-10T17:12:47.557Z,5.30
2019-06-10T17:15:17.613Z,5.20
2019-06-10T17:17:47.538Z,5.43
2019-06-10T17:20:18.581Z,5.60
2019-06-10T17:22:48.593Z,5.77
2019-06-10T17:25:19.098Z,5.20
2019-06-10T17:27:48.879Z,5.23
2019-06-10T17:30:19.550Z,5.37
2019-06-10T17:32:49.145Z,5.40
2019-06-10T17:35:20.059Z,5.80
2019-06-10T17:37:52.198Z,5.33
2019-06-10T17:40:23.428Z,5.53
2019-06-10T17:42:53.339Z,5.67
2019-06-10T17:45:26.189Z,5.73
2019-06-10T17:47:54.545Z,5.90
2019-06-10T17:50:26.524Z,5.67
2019-06-10T17:52:56.526Z,5.53
2019-06-10T17:55:27.687Z,5.37
2019-06-10T17:57:57.744Z,5.77
2019-06-10T18:00:28.170Z,5.60
2019-06-10T18:02:58.921Z,5.40
2019-06-10T18:05:29.301Z,5.13
2019-06-10T18:07:59.362Z,5.93
2019-06-10T18:10:29.807Z,5.93
2019-06-10T18:13:13.295Z,6.03
2019-06-10T18:15:36.813Z,5.60
2019-06-10T18:18:09.467Z,5.40
2019-06-10T18:20:39.913Z,5.83
2019-06-10T18:23:14.827Z,5.87
2019-06-10T18:25:46.431Z,5.80
2019-06-10T18:28:17.544Z,6.57
2019-06-10T18:30:49.053Z,5.63
2019-06-10T18:33:19.059Z,5.50
2019-06-10T18:35:49.066Z,5.47
2019-06-10T18:38:19.079Z,5.30
2019-06-10T18:40:49.128Z,6.00
2019-06-10T18:43:19.107Z,6.60
2019-06-10T18:45:49.108Z,7.13
2019-06-10T18:48:19.816Z,8.00
2019-06-10T18:50:53.422Z,5.80
2019-06-10T18:53:25.227Z,5.90
2019-06-10T18:55:57.870Z,6.10
2019-06-10T18:58:29.997Z,6.50
2019-06-10T19:01:07.491Z,6.83
2019-06-10T19:03:38.242Z,6.13
2019-06-10T19:06:08.610Z,5.73
2019-06-10T19:08:39.320Z,5.70
2019-06-10T19:11:09.668Z,5.93
2019-06-10T19:13:41.040Z,6.23
2019-06-10T19:16:12.981Z,5.83
2019-06-10T19:18:43.448Z,6.47
2019-06-10T19:21:13.345Z,6.40
2019-06-10T19:23:44.109Z,6.73
2019-06-10T19:26:14.976Z,6.40
2019-06-10T19:28:45.342Z,6.40
2019-06-10T19:31:16.502Z,6.90
2019-06-10T19:33:46.173Z,6.50
2019-06-10T19:36:15.859Z,6.00
2019-06-10T19:38:45.589Z,6.77
2019-06-10T19:41:15.393Z,6.60
2019-06-10T19:43:46.327Z,7.57
2019-06-10T19:46:16.709Z,6.97
2019-06-10T19:48:56.928Z,6.20
2019-06-10T19:51:17.814Z,7.30
2019-06-10T19:53:49.053Z,6.67
2019-06-10T19:56:18.749Z,6.30
2019-06-10T19:58:48.791Z,6.07
2019-06-10T20:01:18.462Z,6.33
2019-06-10T20:03:48.141Z,6.27
2019-06-10T20:06:17.922Z,6.47
2019-06-10T20:08:47.613Z,6.27
2019-06-10T20:11:17.287Z,5.70
2019-06-10T20:13:47.103Z,4.87
2019-06-10T20:16:17.143Z,4.67
2019-06-10T20:18:48.218Z,4.37
2019-06-10T20:21:18.620Z,3.85
2019-06-10T20:23:48.373Z,5.20
2019-06-10T20:35:13.607Z,4.10
2019-06-10T20:37:44.629Z,3.93
2019-06-10T20:40:14.876Z,4.03
2019-06-10T20:42:44.585Z,3.80
2019-06-10T20:45:14.391Z,4.87
2019-06-10T20:47:47.577Z,3.87
2019-06-10T20:50:16.579Z,4.70
2019-06-10T20:52:47.503Z,4.10
2019-06-10T20:55:17.760Z,3.93
2019-06-10T20:57:59.015Z,4.20
2019-06-10T21:00:34.124Z,3.43
2019-06-10T21:03:04.406Z,3.87
2019-06-10T21:05:34.779Z,3.77
2019-06-10T21:08:05.919Z,4.27
2019-06-10T21:10:36.960Z,4.20
2019-06-10T21:13:07.085Z,3.80
2019-06-10T21:15:37.201Z,3.83
2019-06-10T21:18:07.030Z,3.50
2019-06-10T21:20:36.783Z,3.63
2019-06-10T21:23:06.617Z,3.93
2019-06-10T21:25:36.283Z,4.27
2019-06-10T21:28:05.932Z,5.03
2019-06-10T21:30:41.636Z,4.40
2019-06-10T21:33:06.928Z,4.00
2019-06-10T21:35:37.037Z,4.30
2019-06-10T21:38:06.755Z,4.23
2019-06-10T21:40:36.744Z,3.70
2019-06-10T21:43:08.826Z,4.00
2019-06-10T21:45:38.825Z,4.10
2019-06-10T21:48:08.718Z,3.10
2019-06-10T21:50:38.383Z,3.43
2019-06-10T21:53:08.033Z,3.60
2019-06-10T21:55:37.695Z,4.73
2019-06-10T21:58:07.351Z,3.60
2019-06-10T22:01:00.850Z,3.53
2019-06-10T22:03:23.421Z,3.60
2019-06-10T22:05:53.814Z,3.87
2019-06-10T22:08:23.823Z,3.70
2019-06-10T22:10:56.209Z,4.30
2019-06-10T22:13:24.830Z,4.00
2019-06-10T22:15:56.895Z,3.83
2019-06-10T22:18:26.719Z,3.90
2019-06-10T22:20:57.706Z,4.13
2019-06-10T22:23:27.904Z,4.00
2019-06-10T22:25:57.809Z,4.17
2019-06-10T22:28:27.736Z,3.77
2019-06-10T22:31:15.011Z,4.07
2019-06-10T22:33:29.407Z,4.23
2019-06-10T22:35:59.066Z,4.23
2019-06-10T22:38:28.952Z,4.87
2019-06-10T22:40:59.309Z,5.37
2019-06-10T22:43:29.138Z,4.53
2019-06-10T22:45:59.905Z,4.40
2019-06-10T22:48:29.628Z,5.50
2019-06-10T22:51:00.265Z,5.23
2019-06-10T22:53:29.931Z,5.30
2019-06-10T22:56:03.154Z,5.07
2019-06-10T22:58:33.023Z,4.87
2019-06-10T23:01:04.230Z,5.20
2019-06-10T23:03:34.104Z,5.13
2019-06-10T23:06:03.803Z,5.83
2019-06-10T23:08:34.853Z,4.40
2019-06-10T23:11:04.937Z,4.37
2019-06-10T23:13:34.535Z,5.27
2019-06-10T23:16:04.345Z,5.83
2019-06-10T23:18:34.306Z,6.47
2019-06-10T23:21:04.641Z,4.07
2019-06-10T23:23:34.379Z,4.90
2019-06-10T23:26:04.116Z,4.87
2019-06-10T23:28:33.857Z,5.63
2019-06-10T23:31:05.271Z,4.87
2019-06-10T23:33:34.877Z,4.90
2019-06-10T23:36:04.810Z,5.37
2019-06-10T23:38:35.049Z,5.57
2019-06-10T23:41:04.811Z,5.50
2019-06-10T23:43:34.473Z,5.30
2019-06-10T23:46:05.291Z,5.73
2019-06-10T23:48:35.329Z,5.77
2019-06-10T23:51:06.934Z,5.43
2019-06-10T23:53:36.903Z,5.23
2019-06-10T23:56:06.627Z,4.97
2019-06-10T23:58:37.365Z,5.57
